Terminal Aerodrome Forecast
Issued by NWS Twin Cities, MN

Home | Current Version | Previous Version | Text Only | Print | Product List | Glossary Off
Versions: 1 2 3 4 5 6 7 8 9 10 11 12

540
FTUS43 KMPX 192325
TAFEAU
TAF
KEAU 192325Z 2000/2024 18007KT P6SM SCT045 BKN250
     FM200400 VRB04KT P6SM FEW250
     FM200800 33005KT P6SM SCT200
     FM201340 01007KT P6SM BKN120
     FM202200 34006KT P6SM FEW200=

USA.gov is the U.S. government's official web portal to all federal, state and local government web resources and services.